ADDS METAR Data INFO
IDs: Format: Raw Decoded Include TAF

Data at: 0357 UTC 19 Jul 2018

KAZE 190335Z AUTO 00000KT 10SM 27/23 A2993 RMK AO2 LTG DSNT N T02650227
KAZE 190315Z AUTO 34004KT 10SM 27/23 A2994 RMK AO2 T02700228
KAZE 190255Z AUTO 36003KT 10SM -DZ 28/23 A2994 RMK AO2 LTG DSNT N T02760226
KAZE 190235Z AUTO 01004KT 10SM 28/22 A2994 RMK AO2 LTG DSNT N T02790219
KAZE 190215Z AUTO 00000KT 10SM 28/22 A2993 RMK AO2 LTG DSNT NW T02750218
KAZE 190155Z AUTO 21003KT 10SM 28/22 A2992 RMK AO2 T02760221
KAZE 190135Z AUTO 00000KT 10SM VCTS 28/22 A2991 RMK AO2 LTG DSNT N AND NW T02800220
KAZE 190115Z AUTO 19003KT 10SM 28/22 A2991 RMK AO2 T02820220
KAZE 190055Z AUTO 20004KT 10SM VCTS 29/23 A2992 RMK AO2 LTG DSNT N NE AND S T02860225
KAZE 190035Z AUTO 18004KT 10SM 29/23 A2991 RMK AO2 LTG DSNT S AND NW T02940232
KAZE 190015Z AUTO 20004KT 10SM 30/25 A2991 RMK AO2 LTG DSNT N AND S T02950246
KAZE 182355Z AUTO 00000KT 10SM 30/25 A2989 RMK AO2 LTG DSNT S T03030248 10337 20255
KAZE 182335Z AUTO 00000KT 10SM 31/25 A2989 RMK AO2 LTG DSNT ALQS T03100248
KAZE 182315Z AUTO 00000KT 10SM 32/24 A2988 RMK AO2 LTG DSNT N SE AND S T03150236
KAZE 182255Z AUTO 00000KT 10SM 32/23 A2988 RMK AO2 LTG DSNT S T03160234
KAZE 182235Z AUTO 22003KT 10SM 32/24 A2989 RMK AO2 LTG DSNT N T03200236
KAZE 182215Z AUTO 00000KT 10SM 32/24 A2988 RMK AO2 T03190237
KAZE 182155Z AUTO 00000KT 10SM 31/22 A2988 RMK AO2 LTG DSNT S T03100224
KAZE 182135Z AUTO 00000KT 10SM 30/24 A2988 RMK AO2 LTG DSNT W T02980235
KAZE 182115Z AUTO 27003KT 10SM 28/23 A2989 RMK AO2 T02750231
KAZE 182055Z AUTO 00000KT 10SM -RA 26/22 A2990 RMK AO2 LTG DSNT N T02550223
KAZE 182035Z AUTO 23003KT 10SM 26/23 A2991 RMK AO2 LTG DSNT N AND W T02610230
KAZE 182015Z AUTO 28004KT 2 1/2SM RA 26/23 A2992 RMK AO2 VIS 3/4V5 LTG DSNT W T02610232
KAZE 181955Z AUTO 08009KT 3/4SM +RA 27/23 A2992 RMK AO2 VIS 1/4V5 LTG DSNT W THRU N T02680231
KAZE 181935Z AUTO 36004KT 10SM VCTS 28/24 A2992 RMK AO2 LTG DSNT NW T02800240
KAZE 181915Z AUTO 00000KT 1/2SM +TSRA 29/24 A2992 RMK AO2 VIS M1/4V5 LTG DSNT NE AND NW T02920236
KAZE 181855Z AUTO 23005KT 10SM VCTS 34/22 A2992 RMK AO2 LTG DSNT N AND NW T03360219
KAZE 181835Z AUTO 25007KT 10SM 33/22 A2993 RMK AO2 T03320216
KAZE 181815Z AUTO 22005KT 10SM 33/22 A2993 RMK AO2 T03310224
KAZE 181755Z AUTO 22006KT 10SM 33/23 A2994 RMK AO2 T03280226 10332 20261
KAZE 181735Z AUTO 21006KT 10SM 33/23 A2994 RMK AO2 T03260225
KAZE 181715Z AUTO 21007KT 170V250 10SM 33/23 A2995 RMK AO2 T03300228
KAZE 181655Z AUTO 21005KT 10SM 33/23 A2996 RMK AO2 T03270226
KAZE 181635Z AUTO 22004KT 10SM SCT032 32/22 A2997 RMK AO2 T03190224
KAZE 181615Z AUTO 22005KT 10SM CLR 32/23 A2997 RMK AO2 T03210226
KAZE 181550Z AUTO 21004KT 10SM CLR 32/23 A2998 RMK AO2 T03160228
KAZE 181535Z AUTO 23003KT 10SM CLR 32/23 A2998 RMK AO2 T03150229
KAZE 181515Z AUTO 00000KT 10SM CLR 31/23 A2998 RMK AO2 T03110228
KAZE 181455Z AUTO 27003KT 10SM CLR 30/23 A2998 RMK AO2 T03030229
KAZE 181435Z AUTO 26004KT 10SM CLR 30/23 A2999 RMK AO2 T03020230
KAZE 181415Z AUTO 26005KT 10SM CLR 30/23 A2999 RMK AO2 T02950231
KAZE 181355Z AUTO 29005KT 10SM CLR 29/23 A2999 RMK AO2 T02910232
KAZE 181335Z AUTO 25007KT 210V280 10SM CLR 29/23 A2999 RMK AO2 T02890232
KAZE 181315Z AUTO 25005KT 10SM CLR 28/23 A2999 RMK AO2 T02840232
KAZE 181255Z AUTO 25005KT 10SM CLR 28/23 A2999 RMK AO2 T02810229
KAZE 181235Z AUTO 24006KT 10SM CLR 27/23 A2999 RMK AO2 T02720230
KAZE 181215Z AUTO 23003KT 10SM CLR 27/23 A2998 RMK AO2 T02680231
KAZE 181155Z AUTO 24003KT 10SM CLR 26/23 A2997 RMK AO2 T02600230 10260 20250
KAZE 181135Z AUTO 23003KT 10SM CLR 26/23 A2997 RMK AO2 T02550231
KAZE 181115Z AUTO 00000KT 10SM CLR 25/23 A2997 RMK AO2 T02520230
KAZE 181055Z AUTO 25003KT 10SM CLR 25/23 A2997 RMK AO2 T02500229
KAZE 181035Z AUTO 00000KT 10SM CLR 25/23 A2996 RMK AO2 T02520229
KAZE 181015Z AUTO 24003KT 10SM CLR 25/23 A2995 RMK AO2 T02520230
KAZE 180955Z AUTO 24003KT 10SM CLR 25/23 A2995 RMK AO2 T02530230
KAZE 180935Z AUTO 23003KT 10SM CLR 25/23 A2994 RMK AO2 T02530230
KAZE 180915Z AUTO 23004KT 10SM CLR 25/23 A2994 RMK AO2 T02530229
KAZE 180855Z AUTO 00000KT 10SM CLR 25/23 A2995 RMK AO2 T02530230
KAZE 180835Z AUTO 22004KT 10SM CLR 26/23 A2995 RMK AO2 T02550229
KAZE 180815Z AUTO 22004KT 10SM CLR 26/23 A2995 RMK AO2 T02560229
KAZE 180755Z AUTO 23004KT 10SM CLR 26/23 A2994 RMK AO2 T02560228
KAZE 180735Z AUTO 22005KT 10SM CLR 26/23 A2994 RMK AO2 T02580227
KAZE 180715Z AUTO 22005KT 10SM CLR 26/23 A2995 RMK AO2 T02580227
KAZE 180655Z AUTO 22003KT 10SM CLR 26/23 A2996 RMK AO2 T02590226
KAZE 180635Z AUTO 22005KT 10SM CLR 26/23 A2996 RMK AO2 T02600226
KAZE 180615Z AUTO 23003KT 10SM CLR 26/23 A2997 RMK AO2 T02600225
KAZE 180555Z AUTO 22005KT 10SM CLR 26/23 A2997 RMK AO2 T02610225 10297 20261
KAZE 180535Z AUTO 22004KT 10SM CLR 26/23 A2998 RMK AO2 T02610225
KAZE 180515Z AUTO 21004KT 10SM CLR 26/23 A2998 RMK AO2 T02620225
KAZE 180455Z AUTO 22004KT 10SM CLR 27/23 A2999 RMK AO2 T02650225 403410246
KAZE 180435Z AUTO 21003KT 10SM CLR 27/23 A2999 RMK AO2 T02660225
KAZE 180415Z AUTO 22005KT 10SM CLR 27/23 A2999 RMK AO2 T02690225
KAZE 180355Z AUTO 23005KT 10SM CLR 27/22 A2998 RMK AO2 T02700223
KAZE 180335Z AUTO 23004KT 10SM CLR 27/23 A2998 RMK AO2 T02720225
KAZE 180315Z AUTO 23004KT 10SM CLR 27/23 A2999 RMK AO2 T02730226
KAZE 180255Z AUTO 20003KT 10SM CLR 28/23 A2999 RMK AO2 T02750229
KAZE 180235Z AUTO 00000KT 10SM CLR 27/23 A2998 RMK AO2 T02730228
KAZE 180215Z AUTO 00000KT 10SM CLR 27/23 A2997 RMK AO2 T02710230
KAZE 180155Z AUTO 00000KT 10SM CLR 27/23 A2997 RMK AO2 LTG DSNT N T02730229
KAZE 180135Z AUTO 00000KT 10SM -DZ CLR 28/23 A2998 RMK AO2 LTG DSNT N AND NW T02750227
KAZE 180115Z AUTO 08003KT 10SM CLR 28/23 A2998 RMK AO2 LTG DSNT N AND NW T02790225
KAZE 180055Z AUTO 04009KT 10SM VCTS CLR 28/23 A2998 RMK AO2 LTG DSNT NW THRU NE T02840225
KAZE 180035Z AUTO 00000KT 10SM TS CLR 29/22 A2998 RMK AO2 LTG DSNT N AND NE T02900223
KAZE 180015Z AUTO 20004KT 10SM CLR 29/22 A2997 RMK AO2 LTG DSNT N AND NE T02930222
KAZE 172355Z AUTO 19007KT 10SM CLR 30/22 A2996 RMK AO2 LTG DSNT N AND NE T02980220 10341 20298
KAZE 172335Z AUTO 21007KT 10SM VCTS CLR 31/22 A2996 RMK AO2 LTG DSNT W THRU NE T03050220
KAZE 172315Z AUTO 22009KT 10SM VCTS CLR 31/22 A2995 RMK AO2 LTG DSNT N AND NE T03120222
KAZE 172255Z AUTO 21006KT 10SM VCTS CLR 32/22 A2993 RMK AO2 LTG DSNT N T03220219
KAZE 172235Z AUTO 21004KT 10SM CLR 33/22 A2995 RMK AO2 LTG DSNT N T03300218
KAZE 172215Z AUTO 22007KT 10SM CLR 33/22 A2995 RMK AO2 LTG DSNT N T03310218
KAZE 172155Z AUTO 22006KT 10SM CLR 33/22 A2996 RMK AO2 LTG DSNT N T03280218
KAZE 172135Z AUTO 22009KT 10SM CLR 33/22 A2995 RMK AO2 LTG DSNT N AND E T03270220
KAZE 172115Z AUTO 23006KT 10SM CLR 33/22 A2995 RMK AO2 LTG DSNT N AND NE T03280217
KAZE 172055Z AUTO 23006KT 10SM CLR 33/22 A2995 RMK AO2 T03300217
KAZE 172035Z AUTO 21007KT 10SM CLR 33/22 A2995 RMK AO2 T03290215
KAZE 172015Z AUTO 23003KT 10SM CLR 33/22 A2996 RMK AO2 T03250217
KAZE 171955Z AUTO 26006KT 10SM CLR 33/21 A2996 RMK AO2 T03280205
KAZE 171935Z AUTO 23004KT 10SM CLR 33/21 A2997 RMK AO2 T03290205
KAZE 171915Z AUTO 27005KT 10SM CLR 34/20 A2997 RMK AO2 LTG DSNT NE T03350202
KAZE 171855Z AUTO 21006KT 10SM CLR 34/22 A2997 RMK AO2 LTG DSNT NE T03350216
KAZE 171835Z AUTO 21005KT 10SM CLR 34/21 A2998 RMK AO2 LTG DSNT N T03350207
KAZE 171815Z AUTO 24003KT 10SM SCT040 SCT047 33/21 A2998 RMK AO2 LTG DSNT N T03300212
KAZE 171755Z AUTO 30004KT 10SM SCT038 SCT046 SCT060 33/22 A2999 RMK AO2 LTG DSNT N T03320215 10335 20260
KAZE 171735Z AUTO 28004KT 10SM SCT048 SCT060 SCT075 33/21 A2999 RMK AO2 T03280214
KAZE 171715Z AUTO 00000KT 10SM SCT039 SCT060 SCT075 32/22 A3001 RMK AO2 LTG DSNT S T03210219
KAZE 171655Z AUTO 00000KT 10SM SCT039 SCT050 32/22 A3002 RMK AO2 T03180223
KAZE 171635Z AUTO 22005KT 10SM CLR 32/23 A3002 RMK AO2 T03200225
KAZE 171615Z AUTO 21004KT 10SM CLR 31/23 A3002 RMK AO2 T03140229